sensor_id;sensor_type;location;lat;lon;timestamp;P1;durP1;ratioP1;P2;durP2;ratioP2
10721;SDS011;5412;59.450;18.124;2023-08-06T00:00:18;6.60;;;3.90;;
10721;SDS011;5412;59.450;18.124;2023-08-06T00:02:44;6.60;;;3.35;;
10721;SDS011;5412;59.450;18.124;2023-08-06T00:05:10;5.70;;;3.50;;
10721;SDS011;5412;59.450;18.124;2023-08-06T00:07:35;5.28;;;3.55;;
10721;SDS011;5412;59.450;18.124;2023-08-06T00:10:01;7.90;;;3.72;;
10721;SDS011;5412;59.450;18.124;2023-08-06T00:12:27;4.80;;;3.03;;
10721;SDS011;5412;59.450;18.124;2023-08-06T00:14:53;12.00;;;3.50;;
10721;SDS011;5412;59.450;18.124;2023-08-06T00:17:19;5.00;;;3.53;;
10721;SDS011;5412;59.450;18.124;2023-08-06T00:19:45;6.25;;;3.30;;
10721;SDS011;5412;59.450;18.124;2023-08-06T00:22:11;7.55;;;3.30;;
10721;SDS011;5412;59.450;18.124;2023-08-06T00:24:36;9.77;;;3.33;;
10721;SDS011;5412;59.450;18.124;2023-08-06T00:27:02;8.65;;;3.97;;
10721;SDS011;5412;59.450;18.124;2023-08-06T00:29:28;9.55;;;3.65;;
10721;SDS011;5412;59.450;18.124;2023-08-06T00:31:54;7.15;;;4.03;;
10721;SDS011;5412;59.450;18.124;2023-08-06T00:34:20;5.20;;;3.22;;
10721;SDS011;5412;59.450;18.124;2023-08-06T00:36:45;4.97;;;3.60;;
10721;SDS011;5412;59.450;18.124;2023-08-06T00:39:11;8.00;;;3.30;;
10721;SDS011;5412;59.450;18.124;2023-08-06T00:41:37;6.05;;;3.42;;
10721;SDS011;5412;59.450;18.124;2023-08-06T00:44:03;4.63;;;3.30;;
10721;SDS011;5412;59.450;18.124;2023-08-06T00:46:29;4.90;;;3.30;;
10721;SDS011;5412;59.450;18.124;2023-08-06T00:48:55;8.90;;;3.53;;
10721;SDS011;5412;59.450;18.124;2023-08-06T00:51:22;6.18;;;3.47;;
10721;SDS011;5412;59.450;18.124;2023-08-06T00:53:49;7.65;;;3.50;;
10721;SDS011;5412;59.450;18.124;2023-08-06T00:56:15;10.88;;;4.35;;
10721;SDS011;5412;59.450;18.124;2023-08-06T00:58:41;10.32;;;4.10;;
10721;SDS011;5412;59.450;18.124;2023-08-06T01:01:07;6.60;;;3.97;;
10721;SDS011;5412;59.450;18.124;2023-08-06T01:03:33;6.80;;;3.40;;
10721;SDS011;5412;59.450;18.124;2023-08-06T01:05:59;6.22;;;4.18;;
10721;SDS011;5412;59.450;18.124;2023-08-06T01:13:53;8.27;;;3.80;;
10721;SDS011;5412;59.450;18.124;2023-08-06T01:16:24;7.22;;;3.70;;
10721;SDS011;5412;59.450;18.124;2023-08-06T01:18:50;6.45;;;3.35;;
10721;SDS011;5412;59.450;18.124;2023-08-06T01:21:17;6.55;;;3.70;;
10721;SDS011;5412;59.450;18.124;2023-08-06T01:23:43;7.45;;;4.18;;
10721;SDS011;5412;59.450;18.124;2023-08-06T01:29:03;4.90;;;3.75;;
10721;SDS011;5412;59.450;18.124;2023-08-06T01:31:32;5.68;;;3.50;;
10721;SDS011;5412;59.450;18.124;2023-08-06T01:34:02;6.93;;;3.55;;
10721;SDS011;5412;59.450;18.124;2023-08-06T01:36:31;7.38;;;3.67;;
10721;SDS011;5412;59.450;18.124;2023-08-06T01:38:57;5.95;;;3.53;;
10721;SDS011;5412;59.450;18.124;2023-08-06T01:41:23;5.47;;;3.53;;
10721;SDS011;5412;59.450;18.124;2023-08-06T01:43:49;7.07;;;3.58;;
10721;SDS011;5412;59.450;18.124;2023-08-06T01:46:14;7.32;;;4.00;;
10721;SDS011;5412;59.450;18.124;2023-08-06T01:48:40;7.65;;;4.40;;
10721;SDS011;5412;59.450;18.124;2023-08-06T01:51:06;7.50;;;3.65;;
10721;SDS011;5412;59.450;18.124;2023-08-06T01:53:32;5.30;;;3.45;;
10721;SDS011;5412;59.450;18.124;2023-08-06T01:55:58;5.15;;;3.65;;
10721;SDS011;5412;59.450;18.124;2023-08-06T01:58:25;4.30;;;3.17;;
10721;SDS011;5412;59.450;18.124;2023-08-06T02:00:51;6.95;;;3.65;;
10721;SDS011;5412;59.450;18.124;2023-08-06T02:03:16;9.95;;;3.95;;
10721;SDS011;5412;59.450;18.124;2023-08-06T02:05:42;9.65;;;4.15;;
10721;SDS011;5412;59.450;18.124;2023-08-06T02:08:08;6.93;;;3.55;;
10721;SDS011;5412;59.450;18.124;2023-08-06T02:10:34;7.97;;;3.58;;
10721;SDS011;5412;59.450;18.124;2023-08-06T02:13:00;7.20;;;3.40;;
10721;SDS011;5412;59.450;18.124;2023-08-06T02:15:26;4.18;;;3.25;;
10721;SDS011;5412;59.450;18.124;2023-08-06T02:17:52;4.10;;;2.67;;
10721;SDS011;5412;59.450;18.124;2023-08-06T02:20:17;4.57;;;3.30;;
10721;SDS011;5412;59.450;18.124;2023-08-06T02:22:43;5.75;;;2.90;;
10721;SDS011;5412;59.450;18.124;2023-08-06T02:25:09;6.25;;;3.40;;
10721;SDS011;5412;59.450;18.124;2023-08-06T02:27:34;5.22;;;3.67;;
10721;SDS011;5412;59.450;18.124;2023-08-06T02:30:00;9.43;;;3.45;;
10721;SDS011;5412;59.450;18.124;2023-08-06T02:32:27;7.40;;;3.50;;
10721;SDS011;5412;59.450;18.124;2023-08-06T02:34:55;6.25;;;3.60;;
10721;SDS011;5412;59.450;18.124;2023-08-06T02:37:21;7.18;;;3.47;;
10721;SDS011;5412;59.450;18.124;2023-08-06T02:39:46;5.35;;;3.42;;
10721;SDS011;5412;59.450;18.124;2023-08-06T02:42:12;5.90;;;3.30;;
10721;SDS011;5412;59.450;18.124;2023-08-06T02:44:38;5.45;;;3.35;;
10721;SDS011;5412;59.450;18.124;2023-08-06T02:47:03;6.20;;;3.33;;
10721;SDS011;5412;59.450;18.124;2023-08-06T02:49:29;4.25;;;3.38;;
10721;SDS011;5412;59.450;18.124;2023-08-06T02:51:55;4.63;;;3.15;;
10721;SDS011;5412;59.450;18.124;2023-08-06T02:54:21;5.57;;;3.50;;
10721;SDS011;5412;59.450;18.124;2023-08-06T02:56:46;5.35;;;3.83;;
10721;SDS011;5412;59.450;18.124;2023-08-06T02:59:12;5.32;;;3.50;;
10721;SDS011;5412;59.450;18.124;2023-08-06T03:01:38;7.20;;;3.80;;
10721;SDS011;5412;59.450;18.124;2023-08-06T03:04:05;10.40;;;4.22;;
10721;SDS011;5412;59.450;18.124;2023-08-06T03:06:31;4.75;;;3.72;;
10721;SDS011;5412;59.450;18.124;2023-08-06T03:08:57;5.28;;;3.60;;
10721;SDS011;5412;59.450;18.124;2023-08-06T03:11:23;9.25;;;4.00;;
10721;SDS011;5412;59.450;18.124;2023-08-06T03:13:48;4.32;;;3.50;;
10721;SDS011;5412;59.450;18.124;2023-08-06T03:16:14;7.63;;;4.20;;
10721;SDS011;5412;59.450;18.124;2023-08-06T03:18:40;6.95;;;3.80;;
10721;SDS011;5412;59.450;18.124;2023-08-06T03:21:05;6.55;;;3.53;;
10721;SDS011;5412;59.450;18.124;2023-08-06T03:23:31;7.85;;;4.20;;
10721;SDS011;5412;59.450;18.124;2023-08-06T03:26:01;10.25;;;3.72;;
10721;SDS011;5412;59.450;18.124;2023-08-06T03:28:27;4.40;;;3.47;;
10721;SDS011;5412;59.450;18.124;2023-08-06T03:31:00;9.13;;;4.30;;
10721;SDS011;5412;59.450;18.124;2023-08-06T03:33:29;6.30;;;3.70;;
10721;SDS011;5412;59.450;18.124;2023-08-06T03:35:55;9.20;;;4.15;;
10721;SDS011;5412;59.450;18.124;2023-08-06T03:38:21;4.82;;;3.88;;
10721;SDS011;5412;59.450;18.124;2023-08-06T03:40:48;7.18;;;3.70;;
10721;SDS011;5412;59.450;18.124;2023-08-06T03:43:14;8.43;;;3.88;;
10721;SDS011;5412;59.450;18.124;2023-08-06T03:45:40;7.55;;;4.00;;
10721;SDS011;5412;59.450;18.124;2023-08-06T03:48:06;3.97;;;3.55;;
10721;SDS011;5412;59.450;18.124;2023-08-06T03:50:32;6.20;;;3.50;;
10721;SDS011;5412;59.450;18.124;2023-08-06T03:52:58;4.28;;;3.35;;
10721;SDS011;5412;59.450;18.124;2023-08-06T03:55:24;7.07;;;4.13;;
10721;SDS011;5412;59.450;18.124;2023-08-06T03:57:50;6.40;;;3.60;;
10721;SDS011;5412;59.450;18.124;2023-08-06T04:00:16;6.63;;;3.72;;
10721;SDS011;5412;59.450;18.124;2023-08-06T04:02:42;7.57;;;4.40;;
10721;SDS011;5412;59.450;18.124;2023-08-06T04:05:07;7.85;;;3.78;;
10721;SDS011;5412;59.450;18.124;2023-08-06T04:07:33;6.03;;;3.83;;
10721;SDS011;5412;59.450;18.124;2023-08-06T04:10:00;4.97;;;3.67;;
10721;SDS011;5412;59.450;18.124;2023-08-06T04:12:27;6.25;;;4.03;;
10721;SDS011;5412;59.450;18.124;2023-08-06T04:14:54;7.18;;;3.88;;
10721;SDS011;5412;59.450;18.124;2023-08-06T04:17:21;6.65;;;4.10;;
10721;SDS011;5412;59.450;18.124;2023-08-06T04:19:50;7.05;;;4.13;;
10721;SDS011;5412;59.450;18.124;2023-08-06T04:22:18;5.43;;;3.53;;
10721;SDS011;5412;59.450;18.124;2023-08-06T04:24:44;6.72;;;3.20;;
10721;SDS011;5412;59.450;18.124;2023-08-06T04:27:10;6.13;;;3.75;;
10721;SDS011;5412;59.450;18.124;2023-08-06T04:29:36;9.80;;;3.90;;
10721;SDS011;5412;59.450;18.124;2023-08-06T04:32:06;4.47;;;3.55;;
10721;SDS011;5412;59.450;18.124;2023-08-06T04:34:34;7.18;;;4.10;;
10721;SDS011;5412;59.450;18.124;2023-08-06T04:37:01;5.28;;;3.28;;
10721;SDS011;5412;59.450;18.124;2023-08-06T04:39:27;6.65;;;3.53;;
10721;SDS011;5412;59.450;18.124;2023-08-06T04:41:53;7.10;;;3.53;;
10721;SDS011;5412;59.450;18.124;2023-08-06T04:44:18;4.25;;;3.40;;
10721;SDS011;5412;59.450;18.124;2023-08-06T04:46:45;6.88;;;3.42;;
10721;SDS011;5412;59.450;18.124;2023-08-06T04:49:11;4.80;;;3.63;;
10721;SDS011;5412;59.450;18.124;2023-08-06T04:51:37;5.00;;;3.28;;
10721;SDS011;5412;59.450;18.124;2023-08-06T04:54:02;6.80;;;3.33;;
10721;SDS011;5412;59.450;18.124;2023-08-06T04:56:28;5.53;;;3.50;;
10721;SDS011;5412;59.450;18.124;2023-08-06T04:58:54;7.72;;;3.50;;
10721;SDS011;5412;59.450;18.124;2023-08-06T05:01:20;5.90;;;3.38;;
10721;SDS011;5412;59.450;18.124;2023-08-06T05:03:46;6.70;;;3.30;;
10721;SDS011;5412;59.450;18.124;2023-08-06T05:06:12;8.07;;;3.75;;
10721;SDS011;5412;59.450;18.124;2023-08-06T05:08:38;5.70;;;3.65;;
10721;SDS011;5412;59.450;18.124;2023-08-06T05:11:04;8.50;;;3.78;;
10721;SDS011;5412;59.450;18.124;2023-08-06T05:13:29;4.38;;;3.30;;
10721;SDS011;5412;59.450;18.124;2023-08-06T05:15:55;6.05;;;3.50;;
10721;SDS011;5412;59.450;18.124;2023-08-06T05:18:21;12.50;;;3.47;;
10721;SDS011;5412;59.450;18.124;2023-08-06T05:20:47;4.30;;;3.03;;
10721;SDS011;5412;59.450;18.124;2023-08-06T05:23:12;5.25;;;3.05;;
10721;SDS011;5412;59.450;18.124;2023-08-06T05:25:38;6.55;;;3.42;;
10721;SDS011;5412;59.450;18.124;2023-08-06T05:28:04;4.43;;;3.05;;
10721;SDS011;5412;59.450;18.124;2023-08-06T05:30:30;7.03;;;3.08;;
10721;SDS011;5412;59.450;18.124;2023-08-06T05:32:56;3.83;;;2.90;;
10721;SDS011;5412;59.450;18.124;2023-08-06T05:35:22;8.10;;;3.65;;
10721;SDS011;5412;59.450;18.124;2023-08-06T05:37:48;6.65;;;2.75;;
10721;SDS011;5412;59.450;18.124;2023-08-06T05:40:15;6.13;;;3.10;;
10721;SDS011;5412;59.450;18.124;2023-08-06T05:42:41;5.72;;;2.97;;
10721;SDS011;5412;59.450;18.124;2023-08-06T05:45:07;6.65;;;2.60;;
10721;SDS011;5412;59.450;18.124;2023-08-06T05:47:33;4.47;;;3.03;;
10721;SDS011;5412;59.450;18.124;2023-08-06T05:49:59;3.70;;;2.83;;
10721;SDS011;5412;59.450;18.124;2023-08-06T05:52:24;6.65;;;2.90;;
10721;SDS011;5412;59.450;18.124;2023-08-06T05:54:50;4.25;;;2.63;;
10721;SDS011;5412;59.450;18.124;2023-08-06T05:57:16;7.10;;;2.80;;
10721;SDS011;5412;59.450;18.124;2023-08-06T05:59:42;3.47;;;2.70;;
10721;SDS011;5412;59.450;18.124;2023-08-06T06:02:08;5.05;;;2.70;;
10721;SDS011;5412;59.450;18.124;2023-08-06T06:04:34;4.13;;;2.80;;
10721;SDS011;5412;59.450;18.124;2023-08-06T06:07:00;3.88;;;2.55;;
10721;SDS011;5412;59.450;18.124;2023-08-06T06:09:25;6.25;;;2.55;;
10721;SDS011;5412;59.450;18.124;2023-08-06T06:11:51;3.58;;;2.40;;
10721;SDS011;5412;59.450;18.124;2023-08-06T06:14:17;3.38;;;2.42;;
10721;SDS011;5412;59.450;18.124;2023-08-06T06:16:44;5.90;;;2.65;;
10721;SDS011;5412;59.450;18.124;2023-08-06T06:19:10;4.22;;;2.58;;
10721;SDS011;5412;59.450;18.124;2023-08-06T06:21:36;3.25;;;2.47;;
10721;SDS011;5412;59.450;18.124;2023-08-06T06:24:05;7.63;;;2.80;;
10721;SDS011;5412;59.450;18.124;2023-08-06T06:26:31;2.47;;;2.25;;
10721;SDS011;5412;59.450;18.124;2023-08-06T06:28:57;5.57;;;2.28;;
10721;SDS011;5412;59.450;18.124;2023-08-06T06:31:23;7.97;;;2.55;;
10721;SDS011;5412;59.450;18.124;2023-08-06T06:33:49;2.88;;;1.95;;
10721;SDS011;5412;59.450;18.124;2023-08-06T06:36:15;4.72;;;2.13;;
10721;SDS011;5412;59.450;18.124;2023-08-06T06:38:40;3.35;;;2.20;;
10721;SDS011;5412;59.450;18.124;2023-08-06T06:41:06;3.95;;;2.10;;
10721;SDS011;5412;59.450;18.124;2023-08-06T06:43:32;4.22;;;2.00;;
10721;SDS011;5412;59.450;18.124;2023-08-06T06:45:58;2.20;;;1.92;;
10721;SDS011;5412;59.450;18.124;2023-08-06T06:48:25;2.13;;;1.80;;
10721;SDS011;5412;59.450;18.124;2023-08-06T06:50:54;4.68;;;2.47;;
10721;SDS011;5412;59.450;18.124;2023-08-06T06:53:21;3.28;;;2.50;;
10721;SDS011;5412;59.450;18.124;2023-08-06T06:55:56;2.22;;;1.90;;
10721;SDS011;5412;59.450;18.124;2023-08-06T06:58:27;6.00;;;2.05;;
10721;SDS011;5412;59.450;18.124;2023-08-06T07:00:53;2.67;;;1.80;;
10721;SDS011;5412;59.450;18.124;2023-08-06T07:03:19;2.72;;;2.30;;
10721;SDS011;5412;59.450;18.124;2023-08-06T07:05:45;5.22;;;2.33;;
10721;SDS011;5412;59.450;18.124;2023-08-06T07:08:11;3.60;;;2.40;;
10721;SDS011;5412;59.450;18.124;2023-08-06T07:10:37;3.63;;;2.20;;
10721;SDS011;5412;59.450;18.124;2023-08-06T07:13:03;2.55;;;2.20;;
10721;SDS011;5412;59.450;18.124;2023-08-06T07:15:29;3.63;;;2.47;;
10721;SDS011;5412;59.450;18.124;2023-08-06T07:17:54;5.85;;;2.45;;
10721;SDS011;5412;59.450;18.124;2023-08-06T07:20:20;6.03;;;2.60;;
10721;SDS011;5412;59.450;18.124;2023-08-06T07:22:46;3.45;;;2.33;;
10721;SDS011;5412;59.450;18.124;2023-08-06T07:25:12;3.10;;;1.85;;
10721;SDS011;5412;59.450;18.124;2023-08-06T07:27:38;3.70;;;2.38;;
10721;SDS011;5412;59.450;18.124;2023-08-06T07:30:04;4.25;;;2.25;;
10721;SDS011;5412;59.450;18.124;2023-08-06T07:32:31;5.28;;;2.10;;
10721;SDS011;5412;59.450;18.124;2023-08-06T07:34:57;3.75;;;1.80;;
10721;SDS011;5412;59.450;18.124;2023-08-06T07:37:25;3.35;;;2.03;;
10721;SDS011;5412;59.450;18.124;2023-08-06T07:39:53;3.60;;;2.22;;
10721;SDS011;5412;59.450;18.124;2023-08-06T07:42:19;3.15;;;2.20;;
10721;SDS011;5412;59.450;18.124;2023-08-06T07:44:55;4.88;;;2.30;;
10721;SDS011;5412;59.450;18.124;2023-08-06T07:47:22;5.40;;;2.03;;
10721;SDS011;5412;59.450;18.124;2023-08-06T07:49:48;2.22;;;2.03;;
10721;SDS011;5412;59.450;18.124;2023-08-06T07:52:14;2.33;;;2.00;;
10721;SDS011;5412;59.450;18.124;2023-08-06T07:54:40;4.72;;;2.00;;
10721;SDS011;5412;59.450;18.124;2023-08-06T07:57:06;3.88;;;2.03;;
10721;SDS011;5412;59.450;18.124;2023-08-06T07:59:31;3.65;;;2.10;;
10721;SDS011;5412;59.450;18.124;2023-08-06T08:01:58;2.88;;;1.80;;
10721;SDS011;5412;59.450;18.124;2023-08-06T08:04:23;5.40;;;2.00;;
10721;SDS011;5412;59.450;18.124;2023-08-06T08:06:49;4.45;;;1.70;;
10721;SDS011;5412;59.450;18.124;2023-08-06T08:09:15;3.83;;;1.90;;
10721;SDS011;5412;59.450;18.124;2023-08-06T08:11:41;3.88;;;2.17;;
10721;SDS011;5412;59.450;18.124;2023-08-06T08:14:07;3.47;;;2.22;;
10721;SDS011;5412;59.450;18.124;2023-08-06T08:16:33;2.80;;;2.10;;
10721;SDS011;5412;59.450;18.124;2023-08-06T08:18:59;4.13;;;2.22;;
10721;SDS011;5412;59.450;18.124;2023-08-06T08:21:25;5.40;;;1.98;;
10721;SDS011;5412;59.450;18.124;2023-08-06T08:23:50;3.30;;;2.17;;
10721;SDS011;5412;59.450;18.124;2023-08-06T08:26:17;4.55;;;1.77;;
10721;SDS011;5412;59.450;18.124;2023-08-06T08:28:43;4.40;;;2.08;;
10721;SDS011;5412;59.450;18.124;2023-08-06T08:31:09;4.80;;;1.85;;
10721;SDS011;5412;59.450;18.124;2023-08-06T08:33:36;5.00;;;2.05;;
10721;SDS011;5412;59.450;18.124;2023-08-06T08:36:05;4.68;;;2.08;;
10721;SDS011;5412;59.450;18.124;2023-08-06T08:38:30;3.20;;;2.20;;
10721;SDS011;5412;59.450;18.124;2023-08-06T08:40:56;3.60;;;1.98;;
10721;SDS011;5412;59.450;18.124;2023-08-06T08:43:22;5.35;;;2.08;;
10721;SDS011;5412;59.450;18.124;2023-08-06T08:45:51;3.58;;;2.20;;
10721;SDS011;5412;59.450;18.124;2023-08-06T08:48:20;4.65;;;2.17;;
10721;SDS011;5412;59.450;18.124;2023-08-06T08:50:47;3.92;;;1.88;;
10721;SDS011;5412;59.450;18.124;2023-08-06T08:53:14;3.88;;;2.08;;
10721;SDS011;5412;59.450;18.124;2023-08-06T08:55:41;4.82;;;2.10;;
10721;SDS011;5412;59.450;18.124;2023-08-06T08:58:09;5.53;;;1.90;;
10721;SDS011;5412;59.450;18.124;2023-08-06T09:00:35;5.32;;;2.10;;
10721;SDS011;5412;59.450;18.124;2023-08-06T09:03:02;4.07;;;2.20;;
10721;SDS011;5412;59.450;18.124;2023-08-06T09:05:31;5.50;;;2.45;;
10721;SDS011;5412;59.450;18.124;2023-08-06T09:08:04;4.65;;;2.10;;
10721;SDS011;5412;59.450;18.124;2023-08-06T09:10:30;3.55;;;2.00;;
10721;SDS011;5412;59.450;18.124;2023-08-06T09:12:57;3.20;;;2.00;;
10721;SDS011;5412;59.450;18.124;2023-08-06T09:15:26;4.47;;;2.17;;
10721;SDS011;5412;59.450;18.124;2023-08-06T09:17:53;5.85;;;2.28;;
10721;SDS011;5412;59.450;18.124;2023-08-06T09:20:19;4.43;;;2.38;;
10721;SDS011;5412;59.450;18.124;2023-08-06T09:22:45;3.30;;;2.45;;
10721;SDS011;5412;59.450;18.124;2023-08-06T09:25:13;4.10;;;2.25;;
10721;SDS011;5412;59.450;18.124;2023-08-06T09:27:48;5.55;;;2.00;;
10721;SDS011;5412;59.450;18.124;2023-08-06T09:30:28;5.32;;;2.55;;
10721;SDS011;5412;59.450;18.124;2023-08-06T09:32:57;8.48;;;2.40;;
10721;SDS011;5412;59.450;18.124;2023-08-06T09:35:23;4.07;;;2.47;;
10721;SDS011;5412;59.450;18.124;2023-08-06T09:37:49;6.43;;;2.33;;
10721;SDS011;5412;59.450;18.124;2023-08-06T09:40:28;3.85;;;2.22;;
10721;SDS011;5412;59.450;18.124;2023-08-06T09:42:57;6.97;;;2.63;;
10721;SDS011;5412;59.450;18.124;2023-08-06T09:45:34;6.40;;;2.58;;
10721;SDS011;5412;59.450;18.124;2023-08-06T09:48:04;3.58;;;2.20;;
10721;SDS011;5412;59.450;18.124;2023-08-06T09:50:32;4.30;;;2.40;;
10721;SDS011;5412;59.450;18.124;2023-08-06T09:53:01;4.80;;;2.28;;
10721;SDS011;5412;59.450;18.124;2023-08-06T09:55:28;5.97;;;2.65;;
10721;SDS011;5412;59.450;18.124;2023-08-06T09:57:54;5.53;;;2.53;;
10721;SDS011;5412;59.450;18.124;2023-08-06T10:00:20;7.05;;;2.55;;
10721;SDS011;5412;59.450;18.124;2023-08-06T10:02:48;4.18;;;2.38;;
10721;SDS011;5412;59.450;18.124;2023-08-06T10:05:16;6.97;;;2.22;;
10721;SDS011;5412;59.450;18.124;2023-08-06T10:07:43;3.35;;;2.03;;
10721;SDS011;5412;59.450;18.124;2023-08-06T10:10:10;5.10;;;2.08;;
10721;SDS011;5412;59.450;18.124;2023-08-06T10:12:37;6.25;;;2.42;;
10721;SDS011;5412;59.450;18.124;2023-08-06T10:15:12;7.47;;;2.33;;
10721;SDS011;5412;59.450;18.124;2023-08-06T10:17:41;4.88;;;2.28;;
10721;SDS011;5412;59.450;18.124;2023-08-06T10:20:09;5.93;;;2.42;;
10721;SDS011;5412;59.450;18.124;2023-08-06T10:22:35;4.47;;;2.30;;
10721;SDS011;5412;59.450;18.124;2023-08-06T10:25:01;4.28;;;2.25;;
10721;SDS011;5412;59.450;18.124;2023-08-06T10:33:01;5.47;;;2.30;;
10721;SDS011;5412;59.450;18.124;2023-08-06T10:35:44;5.82;;;2.28;;
10721;SDS011;5412;59.450;18.124;2023-08-06T10:38:15;6.28;;;2.20;;
10721;SDS011;5412;59.450;18.124;2023-08-06T10:45:52;4.15;;;2.28;;
10721;SDS011;5412;59.450;18.124;2023-08-06T10:50:59;3.30;;;2.60;;
10721;SDS011;5412;59.450;18.124;2023-08-06T10:53:25;5.43;;;2.60;;
10721;SDS011;5412;59.450;18.124;2023-08-06T10:55:51;7.63;;;2.72;;
10721;SDS011;5412;59.450;18.124;2023-08-06T10:58:17;7.18;;;2.50;;
10721;SDS011;5412;59.450;18.124;2023-08-06T11:00:43;3.75;;;2.15;;
10721;SDS011;5412;59.450;18.124;2023-08-06T11:03:09;4.85;;;2.58;;
10721;SDS011;5412;59.450;18.124;2023-08-06T11:05:38;7.93;;;2.75;;
10721;SDS011;5412;59.450;18.124;2023-08-06T11:08:04;4.93;;;2.50;;
10721;SDS011;5412;59.450;18.124;2023-08-06T11:10:32;5.35;;;2.63;;
10721;SDS011;5412;59.450;18.124;2023-08-06T11:13:01;5.60;;;2.65;;
10721;SDS011;5412;59.450;18.124;2023-08-06T11:15:28;6.18;;;3.05;;
10721;SDS011;5412;59.450;18.124;2023-08-06T11:17:55;5.70;;;3.05;;
10721;SDS011;5412;59.450;18.124;2023-08-06T11:20:21;4.38;;;2.65;;
10721;SDS011;5412;59.450;18.124;2023-08-06T11:22:47;5.32;;;2.90;;
10721;SDS011;5412;59.450;18.124;2023-08-06T11:25:13;4.28;;;2.95;;
10721;SDS011;5412;59.450;18.124;2023-08-06T11:27:39;6.43;;;2.80;;
10721;SDS011;5412;59.450;18.124;2023-08-06T11:30:05;6.03;;;3.10;;
10721;SDS011;5412;59.450;18.124;2023-08-06T11:32:31;8.82;;;2.97;;
10721;SDS011;5412;59.450;18.124;2023-08-06T11:34:58;4.70;;;2.45;;
10721;SDS011;5412;59.450;18.124;2023-08-06T11:37:24;5.07;;;3.10;;
10721;SDS011;5412;59.450;18.124;2023-08-06T11:39:50;6.88;;;2.80;;
10721;SDS011;5412;59.450;18.124;2023-08-06T11:42:16;7.53;;;3.20;;
10721;SDS011;5412;59.450;18.124;2023-08-06T11:44:42;5.57;;;3.70;;
10721;SDS011;5412;59.450;18.124;2023-08-06T11:47:15;5.93;;;3.03;;
10721;SDS011;5412;59.450;18.124;2023-08-06T11:49:45;4.78;;;3.00;;
10721;SDS011;5412;59.450;18.124;2023-08-06T11:54:44;5.97;;;3.03;;
10721;SDS011;5412;59.450;18.124;2023-08-06T11:57:26;7.97;;;3.30;;
10721;SDS011;5412;59.450;18.124;2023-08-06T11:59:53;7.07;;;3.00;;
10721;SDS011;5412;59.450;18.124;2023-08-06T12:02:20;4.97;;;3.17;;
10721;SDS011;5412;59.450;18.124;2023-08-06T12:05:01;4.93;;;3.17;;
10721;SDS011;5412;59.450;18.124;2023-08-06T12:07:30;8.07;;;3.80;;
10721;SDS011;5412;59.450;18.124;2023-08-06T12:09:57;9.13;;;3.53;;
10721;SDS011;5412;59.450;18.124;2023-08-06T12:12:24;5.05;;;3.65;;
10721;SDS011;5412;59.450;18.124;2023-08-06T12:14:50;3.75;;;3.05;;
10721;SDS011;5412;59.450;18.124;2023-08-06T12:17:16;5.40;;;3.22;;
10721;SDS011;5412;59.450;18.124;2023-08-06T12:19:43;6.88;;;3.53;;
10721;SDS011;5412;59.450;18.124;2023-08-06T12:22:11;7.10;;;3.42;;
10721;SDS011;5412;59.450;18.124;2023-08-06T12:24:38;7.65;;;4.28;;
10721;SDS011;5412;59.450;18.124;2023-08-06T12:27:08;6.10;;;3.47;;
10721;SDS011;5412;59.450;18.124;2023-08-06T12:29:34;6.68;;;3.47;;
10721;SDS011;5412;59.450;18.124;2023-08-06T12:32:00;5.93;;;3.97;;
10721;SDS011;5412;59.450;18.124;2023-08-06T12:34:26;7.97;;;4.18;;
10721;SDS011;5412;59.450;18.124;2023-08-06T12:36:52;7.45;;;3.75;;
10721;SDS011;5412;59.450;18.124;2023-08-06T12:39:18;5.95;;;3.60;;
10721;SDS011;5412;59.450;18.124;2023-08-06T12:41:44;10.00;;;4.20;;
10721;SDS011;5412;59.450;18.124;2023-08-06T12:44:11;5.60;;;3.67;;
10721;SDS011;5412;59.450;18.124;2023-08-06T12:46:37;8.82;;;4.05;;
10721;SDS011;5412;59.450;18.124;2023-08-06T12:49:03;7.38;;;4.00;;
10721;SDS011;5412;59.450;18.124;2023-08-06T12:51:29;7.70;;;3.95;;
10721;SDS011;5412;59.450;18.124;2023-08-06T12:53:54;5.68;;;3.90;;
10721;SDS011;5412;59.450;18.124;2023-08-06T12:56:20;12.48;;;4.10;;
10721;SDS011;5412;59.450;18.124;2023-08-06T12:58:46;5.45;;;3.80;;
10721;SDS011;5412;59.450;18.124;2023-08-06T13:01:12;7.90;;;3.92;;
10721;SDS011;5412;59.450;18.124;2023-08-06T13:03:37;8.32;;;3.65;;
10721;SDS011;5412;59.450;18.124;2023-08-06T13:06:03;6.28;;;3.75;;
10721;SDS011;5412;59.450;18.124;2023-08-06T13:08:29;5.75;;;4.20;;
10721;SDS011;5412;59.450;18.124;2023-08-06T13:10:55;7.25;;;3.65;;
10721;SDS011;5412;59.450;18.124;2023-08-06T13:13:20;4.65;;;3.40;;
10721;SDS011;5412;59.450;18.124;2023-08-06T13:15:46;6.55;;;3.78;;
10721;SDS011;5412;59.450;18.124;2023-08-06T13:18:12;4.97;;;4.07;;
10721;SDS011;5412;59.450;18.124;2023-08-06T13:20:38;6.50;;;4.00;;
10721;SDS011;5412;59.450;18.124;2023-08-06T13:23:07;6.55;;;4.38;;
10721;SDS011;5412;59.450;18.124;2023-08-06T13:25:32;4.80;;;4.03;;
10721;SDS011;5412;59.450;18.124;2023-08-06T13:28:02;5.55;;;3.67;;
10721;SDS011;5412;59.450;18.124;2023-08-06T13:30:28;6.72;;;4.13;;
10721;SDS011;5412;59.450;18.124;2023-08-06T13:32:54;7.97;;;4.30;;
10721;SDS011;5412;59.450;18.124;2023-08-06T13:35:21;5.18;;;3.70;;
10721;SDS011;5412;59.450;18.124;2023-08-06T13:37:48;7.95;;;4.70;;
10721;SDS011;5412;59.450;18.124;2023-08-06T13:40:14;4.30;;;3.90;;
10721;SDS011;5412;59.450;18.124;2023-08-06T13:42:40;8.48;;;3.83;;
10721;SDS011;5412;59.450;18.124;2023-08-06T13:45:06;4.97;;;3.75;;
10721;SDS011;5412;59.450;18.124;2023-08-06T13:47:32;7.03;;;3.85;;
10721;SDS011;5412;59.450;18.124;2023-08-06T13:49:58;6.38;;;4.00;;
10721;SDS011;5412;59.450;18.124;2023-08-06T13:52:26;4.93;;;4.40;;
10721;SDS011;5412;59.450;18.124;2023-08-06T13:54:52;6.10;;;4.10;;
10721;SDS011;5412;59.450;18.124;2023-08-06T13:57:18;6.38;;;4.05;;
10721;SDS011;5412;59.450;18.124;2023-08-06T13:59:44;6.68;;;4.07;;
10721;SDS011;5412;59.450;18.124;2023-08-06T14:02:10;5.20;;;3.95;;
10721;SDS011;5412;59.450;18.124;2023-08-06T14:04:36;6.95;;;4.65;;
10721;SDS011;5412;59.450;18.124;2023-08-06T14:07:05;7.15;;;4.57;;
10721;SDS011;5412;59.450;18.124;2023-08-06T14:09:30;7.20;;;4.85;;
10721;SDS011;5412;59.450;18.124;2023-08-06T14:11:56;9.45;;;4.85;;
10721;SDS011;5412;59.450;18.124;2023-08-06T14:14:22;6.03;;;4.60;;
10721;SDS011;5412;59.450;18.124;2023-08-06T14:16:51;5.75;;;4.55;;
10721;SDS011;5412;59.450;18.124;2023-08-06T14:19:17;6.90;;;4.60;;
10721;SDS011;5412;59.450;18.124;2023-08-06T14:21:43;7.88;;;4.72;;
10721;SDS011;5412;59.450;18.124;2023-08-06T14:24:09;6.88;;;3.97;;
10721;SDS011;5412;59.450;18.124;2023-08-06T14:26:34;7.20;;;4.10;;
10721;SDS011;5412;59.450;18.124;2023-08-06T14:29:00;6.32;;;4.70;;
10721;SDS011;5412;59.450;18.124;2023-08-06T14:31:26;6.88;;;4.90;;
10721;SDS011;5412;59.450;18.124;2023-08-06T14:33:52;7.25;;;4.18;;
10721;SDS011;5412;59.450;18.124;2023-08-06T14:36:18;7.35;;;4.28;;
10721;SDS011;5412;59.450;18.124;2023-08-06T14:38:44;6.55;;;4.18;;
10721;SDS011;5412;59.450;18.124;2023-08-06T14:41:10;6.90;;;4.22;;
10721;SDS011;5412;59.450;18.124;2023-08-06T14:43:36;4.68;;;4.18;;
10721;SDS011;5412;59.450;18.124;2023-08-06T14:46:02;7.07;;;4.20;;
10721;SDS011;5412;59.450;18.124;2023-08-06T14:48:28;6.97;;;4.47;;
10721;SDS011;5412;59.450;18.124;2023-08-06T14:50:55;6.00;;;4.30;;
10721;SDS011;5412;59.450;18.124;2023-08-06T14:53:21;6.60;;;4.43;;
10721;SDS011;5412;59.450;18.124;2023-08-06T14:55:47;8.85;;;4.50;;
10721;SDS011;5412;59.450;18.124;2023-08-06T14:58:13;6.55;;;4.18;;
10721;SDS011;5412;59.450;18.124;2023-08-06T15:00:38;5.07;;;4.03;;
10721;SDS011;5412;59.450;18.124;2023-08-06T15:03:04;4.22;;;3.90;;
10721;SDS011;5412;59.450;18.124;2023-08-06T15:05:30;6.05;;;4.30;;
10721;SDS011;5412;59.450;18.124;2023-08-06T15:07:55;6.45;;;4.18;;